Time;durP1;ratioP1;P1;durP2;ratioP2;P2;SDS_P1;SDS_P2;PMS_P1;PMS_P2;Temp;Humidity;BMP_temperature;BMP_pressure;BME280_temperature;BME280_humidity;BME280_pressure;Samples;Min_cycle;Max_cycle;Signal;HPM_P1;HPM_P2
2022/02/01 00:00:13;;;;;;;12.13;8.15;;;24.00;93.50;;;;;;4211650;28;20137;-63
2022/02/01 00:02:36;;;;;;;16.42;9.00;;;24.00;93.50;;;;;;4217648;28;20093;-63
2022/02/01 00:04:55;;;;;;;16.30;9.38;;;24.00;93.50;;;;;;4217486;28;20052;-64
2022/02/01 00:13:38;;;;;;;16.38;10.35;;;24.00;93.10;;;;;;4214353;28;20082;-63
2022/02/01 00:18:15;;;;;;;11.60;7.70;;;24.00;93.10;;;;;;4217382;28;20545;-64
2022/02/01 00:34:21;;;;;;;14.07;7.20;;;24.00;92.70;;;;;;4208837;28;20079;-67
2022/02/01 00:36:40;;;;;;;12.77;7.50;;;24.00;92.80;;;;;;4210279;28;20076;-64
2022/02/01 00:41:03;;;;;;;11.13;6.82;;;23.90;92.80;;;;;;4212065;28;20478;-63
2022/02/01 00:43:08;;;;;;;12.60;6.82;;;24.00;92.80;;;;;;4211100;28;20043;-63
2022/02/01 00:45:12;;;;;;;11.52;7.78;;;24.00;92.80;;;;;;4213746;28;20044;-64
2022/02/01 00:47:16;;;;;;;13.23;7.03;;;24.00;92.70;;;;;;4213484;28;20490;-63
2022/02/01 00:49:21;;;;;;;11.93;7.10;;;24.10;92.70;;;;;;4213564;28;20159;-63
2022/02/01 00:51:25;;;;;;;14.88;9.02;;;24.10;92.70;;;;;;4213750;28;20035;-63
2022/02/01 00:53:37;;;;;;;13.30;10.00;;;24.00;92.70;;;;;;4213603;28;20054;-63
2022/02/01 00:55:43;;;;;;;16.20;9.88;;;24.00;92.70;;;;;;4215951;28;20142;-64
2022/02/01 00:57:47;;;;;;;12.82;9.30;;;24.10;92.70;;;;;;4218915;28;20730;-64
2022/02/01 00:59:52;;;;;;;11.15;8.07;;;24.10;92.40;;;;;;4212246;28;20056;-63
2022/02/01 01:01:56;;;;;;;13.40;8.25;;;24.10;92.20;;;;;;4214333;28;20055;-64
2022/02/01 01:04:01;;;;;;;11.35;7.57;;;24.10;92.30;;;;;;4222541;28;20100;-65
2022/02/01 01:06:06;;;;;;;11.65;7.95;;;24.20;92.30;;;;;;4222391;28;20044;-65
2022/02/01 01:08:11;;;;;;;11.35;8.68;;;24.20;92.30;;;;;;4213799;28;20612;-65
2022/02/01 01:10:15;;;;;;;11.25;8.13;;;24.20;92.20;;;;;;4213707;28;20413;-65
2022/02/01 01:12:19;;;;;;;14.15;8.05;;;24.30;92.20;;;;;;4213826;28;20032;-64
2022/02/01 01:43:50;;;;;;;18.02;8.73;;;24.50;92.00;;;;;;4212752;28;20055;-65
2022/02/01 01:55:02;;;;;;;10.35;7.63;;;24.60;91.80;;;;;;4217084;28;20047;-64
2022/02/01 01:57:11;;;;;;;12.70;7.68;;;24.60;91.70;;;;;;4221064;28;20051;-64
2022/02/01 01:59:15;;;;;;;10.68;7.32;;;24.70;91.50;;;;;;4220728;28;20412;-64
2022/02/01 02:01:20;;;;;;;12.88;8.73;;;24.70;91.40;;;;;;4210839;28;20044;-64
2022/02/01 02:03:31;;;;;;;12.10;7.50;;;24.80;91.10;;;;;;4214090;28;20035;-64
2022/02/01 02:05:36;;;;;;;11.63;7.72;;;24.70;91.00;;;;;;4219121;28;20147;-64
2022/02/01 02:07:40;;;;;;;12.13;8.07;;;24.70;91.10;;;;;;4227831;28;20106;-64
2022/02/01 02:09:44;;;;;;;12.27;7.50;;;24.80;91.00;;;;;;4222765;28;20043;-64
2022/02/01 02:16:18;;;;;;;14.00;8.38;;;24.80;91.10;;;;;;4220420;28;20032;-64
2022/02/01 02:18:23;;;;;;;10.75;7.63;;;24.90;91.00;;;;;;4217879;28;20646;-64
2022/02/01 02:20:37;;;;;;;12.20;8.35;;;24.90;91.00;;;;;;4220442;28;20044;-64
2022/02/01 02:22:46;;;;;;;12.40;8.38;;;24.90;91.10;;;;;;4207664;28;20158;-64
2022/02/01 02:24:50;;;;;;;11.52;8.20;;;24.90;91.00;;;;;;4219979;28;20040;-65
2022/02/01 02:26:56;;;;;;;10.52;7.40;;;24.90;91.00;;;;;;4219880;28;20051;-63
2022/02/01 02:29:02;;;;;;;11.02;7.63;;;24.90;91.10;;;;;;4220515;28;20031;-64
2022/02/01 02:31:07;;;;;;;15.18;8.38;;;25.10;91.00;;;;;;4218220;28;20044;-64
2022/02/01 02:33:14;;;;;;;11.88;8.25;;;25.10;90.80;;;;;;4220619;28;20066;-64
2022/02/01 02:35:19;;;;;;;12.00;9.38;;;25.10;90.90;;;;;;4217816;28;20102;-65
2022/02/01 02:37:29;;;;;;;11.43;8.80;;;24.80;91.10;;;;;;4216047;28;20376;-65
2022/02/01 02:39:46;;;;;;;12.05;8.05;;;24.90;91.20;;;;;;4220343;28;20050;-65
2022/02/01 02:46:28;;;;;;;10.73;8.13;;;25.30;90.80;;;;;;4205984;28;20064;-66
2022/02/01 02:48:33;;;;;;;11.95;8.85;;;25.30;90.80;;;;;;4219643;28;20074;-65
2022/02/01 02:50:37;;;;;;;18.15;10.10;;;25.30;90.80;;;;;;4220125;28;20086;-64
2022/02/01 02:52:41;;;;;;;12.85;9.15;;;25.30;90.70;;;;;;4219953;28;20767;-65
2022/02/01 02:54:46;;;;;;;11.80;8.77;;;25.30;90.80;;;;;;4205619;28;20426;-65
2022/02/01 02:56:56;;;;;;;14.20;8.52;;;25.40;90.70;;;;;;4220022;28;20527;-65
2022/02/01 02:59:01;;;;;;;13.63;9.07;;;25.40;90.80;;;;;;4219847;28;20039;-65
2022/02/01 03:01:05;;;;;;;11.70;8.77;;;25.50;90.70;;;;;;4217625;28;20096;-65
2022/02/01 03:03:10;;;;;;;12.00;8.77;;;25.50;90.70;;;;;;4220755;28;20047;-65
2022/02/01 03:05:15;;;;;;;15.25;9.48;;;25.50;90.70;;;;;;4207761;28;20502;-65
2022/02/01 03:07:19;;;;;;;12.13;8.63;;;25.40;90.60;;;;;;4219538;28;20055;-66
2022/02/01 03:09:25;;;;;;;15.20;8.82;;;25.60;90.60;;;;;;4227273;28;20031;-65
2022/02/01 03:11:29;;;;;;;14.10;8.73;;;25.50;90.70;;;;;;4214044;28;20551;-65
2022/02/01 03:13:34;;;;;;;12.75;8.50;;;25.60;90.60;;;;;;4221497;28;20037;-65
2022/02/01 03:20:02;;;;;;;14.43;9.05;;;25.50;90.80;;;;;;4208560;28;20051;-65
2022/02/01 03:22:06;;;;;;;15.20;9.75;;;25.60;90.70;;;;;;4190670;28;20195;-65
2022/02/01 03:24:11;;;;;;;13.18;8.95;;;25.70;90.70;;;;;;4192901;28;20063;-65
2022/02/01 03:26:15;;;;;;;14.02;9.27;;;25.80;90.50;;;;;;4192650;28;20070;-66
2022/02/01 03:28:20;;;;;;;17.95;10.60;;;25.90;90.50;;;;;;4191752;28;20048;-65
2022/02/01 03:30:24;;;;;;;13.70;10.45;;;25.90;90.50;;;;;;4194881;28;20045;-65
2022/02/01 03:32:28;;;;;;;19.60;10.32;;;25.80;90.50;;;;;;4192937;28;20506;-65
2022/02/01 03:34:32;;;;;;;16.63;10.38;;;25.90;90.50;;;;;;4187991;28;20041;-65
2022/02/01 03:36:37;;;;;;;14.60;10.43;;;25.90;90.30;;;;;;4195943;28;20048;-65
2022/02/01 03:38:41;;;;;;;14.57;10.63;;;26.00;90.50;;;;;;4196303;28;20048;-65
2022/02/01 03:40:45;;;;;;;18.00;11.48;;;26.00;90.50;;;;;;4198211;28;20056;-65
2022/02/01 03:42:50;;;;;;;13.00;10.13;;;26.00;90.40;;;;;;4194266;28;20131;-65
2022/02/01 03:44:54;;;;;;;17.02;10.32;;;25.90;90.50;;;;;;4196817;28;20048;-65
2022/02/01 03:47:02;;;;;;;16.75;10.13;;;26.10;90.50;;;;;;4206271;28;20044;-63
2022/02/01 03:49:06;;;;;;;14.00;10.05;;;26.20;90.50;;;;;;4213238;28;20445;-65
2022/02/01 03:51:11;;;;;;;15.57;9.85;;;26.00;90.70;;;;;;4199390;28;20102;-66
2022/02/01 03:53:15;;;;;;;15.77;10.20;;;26.00;90.70;;;;;;4202975;28;20082;-65
2022/02/01 03:55:20;;;;;;;14.88;9.48;;;26.20;90.50;;;;;;4212422;28;20131;-65
2022/02/01 03:57:25;;;;;;;16.52;10.23;;;26.30;90.30;;;;;;4205802;28;20048;-63
2022/02/01 03:59:29;;;;;;;13.35;9.57;;;26.30;90.40;;;;;;4194800;28;20457;-65
2022/02/01 04:01:34;;;;;;;14.13;10.13;;;26.40;90.30;;;;;;4207210;28;20075;-65
2022/02/01 04:03:39;;;;;;;13.95;10.02;;;26.40;90.40;;;;;;4194666;28;20099;-64
2022/02/01 04:05:43;;;;;;;12.25;9.45;;;26.40;90.50;;;;;;4199856;28;20101;-64
2022/02/01 04:07:48;;;;;;;11.30;9.15;;;26.50;90.20;;;;;;4198097;28;20386;-64
2022/02/01 04:09:52;;;;;;;13.73;9.75;;;26.60;90.00;;;;;;4197592;28;20072;-64
2022/02/01 04:11:58;;;;;;;18.67;10.02;;;26.80;90.00;;;;;;4197886;28;20040;-64
2022/02/01 04:14:03;;;;;;;15.88;10.60;;;26.90;89.80;;;;;;4195651;28;20075;-64
2022/02/01 04:16:07;;;;;;;12.82;9.65;;;26.70;90.10;;;;;;4194348;28;20541;-64
2022/02/01 04:18:12;;;;;;;12.45;9.90;;;26.80;90.30;;;;;;4197940;28;20102;-64
2022/02/01 04:20:16;;;;;;;13.88;9.93;;;26.70;90.20;;;;;;4197500;28;20044;-64
2022/02/01 04:22:20;;;;;;;17.80;10.32;;;26.80;90.10;;;;;;4200549;28;20444;-64
2022/02/01 04:24:33;;;;;;;12.48;9.50;;;26.90;89.80;;;;;;4195733;28;20044;-64
2022/02/01 04:26:38;;;;;;;14.90;9.38;;;27.10;89.40;;;;;;4197444;28;20433;-64
2022/02/01 04:28:43;;;;;;;14.18;9.52;;;27.20;89.70;;;;;;4197322;28;20770;-64
2022/02/01 04:30:47;;;;;;;14.38;9.63;;;27.20;89.70;;;;;;4197516;28;20082;-64
2022/02/01 04:32:53;;;;;;;16.45;9.80;;;27.30;89.70;;;;;;4199116;28;20052;-64
2022/02/01 04:34:59;;;;;;;15.85;10.05;;;27.30;90.00;;;;;;4197436;28;20032;-64
2022/02/01 04:37:04;;;;;;;14.55;10.70;;;27.20;89.40;;;;;;4213270;28;20044;-64
2022/02/01 04:39:08;;;;;;;12.48;9.82;;;27.20;89.60;;;;;;4195263;28;20043;-64
2022/02/01 04:41:12;;;;;;;17.52;10.70;;;27.10;90.10;;;;;;4197298;28;20433;-64
2022/02/01 04:43:16;;;;;;;16.38;10.18;;;27.10;90.20;;;;;;4199093;28;20046;-63
2022/02/01 04:45:24;;;;;;;18.00;10.52;;;27.20;90.20;;;;;;4195642;28;20123;-65
2022/02/01 04:47:31;;;;;;;17.77;10.32;;;27.30;90.00;;;;;;4205373;28;20032;-62
2022/02/01 04:49:36;;;;;;;16.13;10.30;;;27.30;89.90;;;;;;4208518;28;20052;-62
2022/02/01 04:51:40;;;;;;;12.35;9.70;;;27.40;89.80;;;;;;4196574;28;20403;-62
2022/02/01 04:53:45;;;;;;;14.13;9.95;;;27.50;89.50;;;;;;4212546;28;20109;-63
2022/02/01 04:57:54;;;;;;;17.75;10.45;;;27.60;89.10;;;;;;4185534;28;20132;-63
2022/02/01 04:59:58;;;;;;;14.98;10.20;;;27.70;89.00;;;;;;4185620;28;20048;-63
2022/02/01 05:02:03;;;;;;;14.60;10.18;;;27.70;89.10;;;;;;4213286;28;20056;-63
2022/02/01 05:04:08;;;;;;;15.18;11.23;;;27.70;89.20;;;;;;4194208;28;20367;-63
2022/02/01 05:06:13;;;;;;;15.63;10.25;;;27.70;89.00;;;;;;4212052;28;20456;-63
2022/02/01 05:08:18;;;;;;;14.40;10.60;;;27.80;89.30;;;;;;4197337;28;20037;-63
2022/02/01 05:10:23;;;;;;;16.88;10.75;;;27.90;89.40;;;;;;4197408;28;21026;-64
2022/02/01 05:12:34;;;;;;;12.93;10.32;;;27.90;89.10;;;;;;4197621;28;20110;-63
2022/02/01 05:14:39;;;;;;;13.82;10.48;;;28.00;89.10;;;;;;4217062;28;20040;-63
2022/02/01 05:16:58;;;;;;;23.65;11.05;;;28.00;88.50;;;;;;4207199;28;20054;-63
2022/02/01 05:19:05;;;;;;;16.63;11.27;;;28.10;89.30;;;;;;4194695;28;20557;-63
2022/02/01 05:21:26;;;;;;;18.88;12.32;;;28.20;88.40;;;;;;4196757;28;20047;-62
2022/02/01 05:23:30;;;;;;;16.15;11.07;;;28.20;88.70;;;;;;4196025;28;20053;-62
2022/02/01 05:25:34;;;;;;;13.77;11.18;;;28.20;88.50;;;;;;4195095;28;20032;-63
2022/02/01 05:27:40;;;;;;;17.48;11.25;;;28.20;88.40;;;;;;4196081;28;20390;-63
2022/02/01 05:29:44;;;;;;;12.98;10.30;;;28.20;88.30;;;;;;4195807;28;20044;-62
2022/02/01 05:31:51;;;;;;;14.57;11.27;;;28.20;88.00;;;;;;4195720;28;20071;-63
2022/02/01 05:33:56;;;;;;;17.92;10.85;;;28.10;88.10;;;;;;4193230;28;20068;-60
2022/02/01 05:36:01;;;;;;;15.73;10.95;;;28.10;88.20;;;;;;4210440;28;20044;-63
2022/02/01 05:38:05;;;;;;;17.52;10.98;;;28.20;87.70;;;;;;4195274;28;20044;-63
2022/02/01 05:40:10;;;;;;;14.75;10.27;;;28.30;87.80;;;;;;4195608;28;20544;-63
2022/02/01 05:42:19;;;;;;;15.00;10.35;;;28.40;87.90;;;;;;4194441;28;20048;-63
2022/02/01 05:44:23;;;;;;;13.68;10.55;;;28.50;87.70;;;;;;4196522;28;20040;-63
2022/02/01 05:46:28;;;;;;;15.68;10.93;;;28.50;87.70;;;;;;4195193;28;20437;-63
2022/02/01 05:48:32;;;;;;;12.02;10.13;;;28.60;87.50;;;;;;4193583;28;20036;-63
2022/02/01 05:50:36;;;;;;;14.52;11.07;;;28.60;87.50;;;;;;4161011;28;20059;-63
2022/02/01 05:52:40;;;;;;;17.38;10.65;;;28.60;87.10;;;;;;4195563;28;20123;-62
2022/02/01 05:54:45;;;;;;;13.18;10.48;;;28.60;87.30;;;;;;4196468;28;20098;-63
2022/02/01 05:56:49;;;;;;;12.52;9.95;;;28.60;87.20;;;;;;4195412;28;20435;-62
2022/02/01 05:58:53;;;;;;;19.45;10.77;;;28.60;87.30;;;;;;4192964;28;20055;-63
2022/02/01 06:00:57;;;;;;;14.70;10.38;;;28.70;87.40;;;;;;4194481;28;20746;-63
2022/02/01 06:03:02;;;;;;;15.82;10.30;;;28.80;87.20;;;;;;4195675;28;20045;-63
2022/02/01 06:05:07;;;;;;;17.55;10.35;;;28.90;86.90;;;;;;4196363;28;20098;-63
2022/02/01 06:07:11;;;;;;;15.15;10.20;;;28.90;86.70;;;;;;4193285;28;20068;-63
2022/02/01 06:09:16;;;;;;;15.48;10.93;;;28.90;86.80;;;;;;4194278;28;20111;-63
2022/02/01 06:11:21;;;;;;;17.40;11.00;;;28.90;86.90;;;;;;4210940;28;20044;-62
2022/02/01 06:13:25;;;;;;;15.38;11.57;;;28.80;86.60;;;;;;4195821;28;20040;-62
2022/02/01 06:15:30;;;;;;;16.55;11.32;;;28.70;86.50;;;;;;4196038;28;20387;-63
2022/02/01 06:17:34;;;;;;;13.75;10.35;;;28.80;86.50;;;;;;4209465;28;20514;-63
2022/02/01 06:19:43;;;;;;;15.13;9.68;;;28.80;87.00;;;;;;4195980;28;20045;-64
2022/02/01 06:21:47;;;;;;;19.35;10.73;;;28.80;86.70;;;;;;4211205;28;20094;-64
2022/02/01 06:23:52;;;;;;;14.38;11.05;;;28.80;86.80;;;;;;4193480;28;20079;-63
2022/02/01 06:25:57;;;;;;;16.42;11.25;;;28.80;87.10;;;;;;4194417;28;20048;-64
2022/02/01 06:28:01;;;;;;;15.40;12.10;;;28.90;86.90;;;;;;4198944;28;20448;-64
2022/02/01 06:30:07;;;;;;;15.70;11.45;;;28.90;87.10;;;;;;4193982;28;20720;-63
2022/02/01 06:32:12;;;;;;;16.80;11.45;;;28.80;86.70;;;;;;4176784;28;20178;-64
2022/02/01 06:34:16;;;;;;;14.98;10.80;;;28.80;86.80;;;;;;4174678;28;20104;-63
2022/02/01 06:36:21;;;;;;;19.50;11.65;;;28.80;86.60;;;;;;4176753;28;20041;-63
2022/02/01 06:38:25;;;;;;;16.35;12.43;;;28.80;86.30;;;;;;4179376;28;20040;-63
2022/02/01 06:40:29;;;;;;;21.50;18.65;;;28.80;86.70;;;;;;4176579;28;20053;-65
2022/02/01 06:42:34;;;;;;;18.05;14.05;;;28.80;86.70;;;;;;4174282;28;20057;-64
2022/02/01 06:44:39;;;;;;;18.33;12.88;;;28.80;86.60;;;;;;4175807;28;20135;-63
2022/02/01 06:46:44;;;;;;;19.38;12.07;;;28.80;86.60;;;;;;4176581;28;20049;-64
2022/02/01 06:48:48;;;;;;;16.52;11.65;;;28.80;86.60;;;;;;4163696;28;20061;-63
2022/02/01 06:50:54;;;;;;;13.70;11.45;;;28.90;86.40;;;;;;4176705;28;20091;-64
2022/02/01 06:52:58;;;;;;;17.58;11.77;;;29.00;86.00;;;;;;4176819;28;20037;-66
2022/02/01 06:55:03;;;;;;;15.50;11.25;;;29.10;85.80;;;;;;4174748;28;20040;-64
2022/02/01 06:57:08;;;;;;;15.05;11.00;;;29.10;85.60;;;;;;4176293;28;20515;-64
2022/02/01 06:59:12;;;;;;;16.83;10.95;;;29.10;85.80;;;;;;4175437;28;20055;-64
2022/02/01 07:01:17;;;;;;;14.85;11.27;;;29.10;85.60;;;;;;4174769;28;20140;-63
2022/02/01 07:03:22;;;;;;;15.90;11.10;;;29.20;85.40;;;;;;4183878;28;20052;-63
2022/02/01 07:05:27;;;;;;;16.27;10.68;;;29.20;85.40;;;;;;4193449;28;20058;-63
2022/02/01 07:07:31;;;;;;;15.35;10.82;;;29.10;85.70;;;;;;4194268;28;20041;-64
2022/02/01 07:09:36;;;;;;;12.68;10.32;;;29.20;85.90;;;;;;4195234;28;20388;-63
2022/02/01 07:11:41;;;;;;;14.30;10.55;;;29.30;85.90;;;;;;4192436;28;20071;-63
2022/02/01 07:13:46;;;;;;;13.40;9.80;;;29.30;85.70;;;;;;4198143;28;20044;-63
2022/02/01 07:15:51;;;;;;;15.32;10.73;;;29.30;85.80;;;;;;4199923;28;20039;-62
2022/02/01 07:17:56;;;;;;;17.48;11.45;;;29.20;85.80;;;;;;4195480;28;20044;-63
2022/02/01 07:20:00;;;;;;;15.00;12.15;;;29.10;85.50;;;;;;4201394;28;20071;-62
2022/02/01 07:22:04;;;;;;;14.82;11.68;;;29.00;86.30;;;;;;4208997;28;20105;-63
2022/02/01 07:24:15;;;;;;;14.52;11.48;;;28.90;86.30;;;;;;4202714;28;20040;-63
2022/02/01 07:26:20;;;;;;;14.10;11.60;;;29.10;86.10;;;;;;4199794;28;20090;-63
2022/02/01 07:28:27;;;;;;;16.77;12.40;;;29.10;85.90;;;;;;4205182;28;20055;-63
2022/02/01 07:30:31;;;;;;;19.25;11.98;;;29.20;86.10;;;;;;4202998;28;20169;-63
2022/02/01 07:32:35;;;;;;;14.10;11.82;;;29.10;86.20;;;;;;4210632;28;20055;-63
2022/02/01 07:34:40;;;;;;;18.38;12.25;;;29.10;86.10;;;;;;4203231;28;20064;-63
2022/02/01 07:36:44;;;;;;;16.20;12.30;;;29.00;86.00;;;;;;4190580;28;20044;-63
2022/02/01 07:38:49;;;;;;;15.35;12.15;;;29.10;86.40;;;;;;4196104;28;20128;-64
2022/02/01 07:40:54;;;;;;;16.52;12.13;;;29.20;86.30;;;;;;4200479;28;20051;-64
2022/02/01 07:42:58;;;;;;;14.90;12.00;;;29.30;85.80;;;;;;4208269;28;20040;-64
2022/02/01 07:45:06;;;;;;;14.40;11.57;;;29.40;85.00;;;;;;4206739;28;20044;-64
2022/02/01 07:47:16;;;;;;;18.55;12.38;;;29.40;85.30;;;;;;4194936;28;20123;-64
2022/02/01 07:49:21;;;;;;;15.70;11.38;;;29.40;85.40;;;;;;4204863;28;20102;-63
2022/02/01 07:51:25;;;;;;;16.35;12.85;;;29.50;85.40;;;;;;4199198;28;20053;-63
2022/02/01 07:53:30;;;;;;;16.05;11.55;;;29.50;85.00;;;;;;4208317;28;20044;-63
2022/02/01 07:55:35;;;;;;;16.42;12.30;;;29.50;85.30;;;;;;4216129;28;20123;-62
2022/02/01 07:57:39;;;;;;;15.80;12.13;;;29.50;85.50;;;;;;4199666;28;20175;-63
2022/02/01 07:59:43;;;;;;;15.52;11.25;;;29.50;85.60;;;;;;4213777;28;20130;-63
2022/02/01 08:01:48;;;;;;;21.88;12.60;;;29.60;85.60;;;;;;4212294;28;20444;-63
2022/02/01 08:03:52;;;;;;;13.57;11.43;;;29.60;85.20;;;;;;4210582;28;20103;-64
2022/02/01 08:05:57;;;;;;;17.13;11.77;;;29.50;85.20;;;;;;4210811;28;20535;-63
2022/02/01 08:08:02;;;;;;;13.80;10.52;;;29.50;85.30;;;;;;4210834;28;20040;-63
2022/02/01 08:10:11;;;;;;;16.15;11.50;;;29.60;85.20;;;;;;4211079;28;20036;-62
2022/02/01 08:17:21;;;;;;;16.05;11.02;;;29.50;84.60;;;;;;4209308;28;20082;-62
2022/02/01 08:19:38;;;;;;;15.75;11.48;;;29.50;84.30;;;;;;4202079;28;20049;-63
2022/02/01 08:21:45;;;;;;;15.20;11.25;;;29.50;84.70;;;;;;4218739;28;20448;-63
2022/02/01 08:23:50;;;;;;;18.02;11.63;;;29.50;84.90;;;;;;4211712;28;20063;-64
2022/02/01 08:25:55;;;;;;;17.80;11.77;;;29.40;85.00;;;;;;4216918;28;20063;-64
2022/02/01 08:28:01;;;;;;;19.77;12.30;;;29.40;85.10;;;;;;4224421;28;20043;-65
2022/02/01 08:30:06;;;;;;;19.20;12.50;;;29.40;85.00;;;;;;4217227;28;20109;-62
2022/02/01 08:32:11;;;;;;;15.50;12.77;;;29.30;84.40;;;;;;4214090;28;20035;-62
2022/02/01 08:34:15;;;;;;;13.60;11.25;;;29.20;85.00;;;;;;4205554;28;20655;-63
2022/02/01 08:36:20;;;;;;;18.75;12.55;;;29.30;85.00;;;;;;4196808;28;20098;-63
2022/02/01 08:38:24;;;;;;;17.42;12.40;;;29.20;84.80;;;;;;4214198;28;20036;-64
2022/02/01 08:40:28;;;;;;;17.50;12.45;;;29.20;85.10;;;;;;4196201;28;20078;-63
2022/02/01 08:42:32;;;;;;;15.05;11.85;;;29.20;85.20;;;;;;4214598;28;20040;-63
2022/02/01 08:44:36;;;;;;;14.23;11.85;;;29.30;85.40;;;;;;4214773;28;20467;-70
2022/02/01 08:46:40;;;;;;;19.70;13.07;;;29.30;84.90;;;;;;4227350;28;20036;-69
2022/02/01 08:48:45;;;;;;;14.70;12.00;;;29.20;84.60;;;;;;4214758;28;20055;-69
2022/02/01 08:50:49;;;;;;;15.75;13.13;;;29.20;84.70;;;;;;4214330;28;20048;-70
2022/02/01 08:52:58;;;;;;;16.42;12.55;;;29.20;85.00;;;;;;4215970;28;20139;-70
2022/02/01 08:55:05;;;;;;;16.42;12.52;;;29.20;85.30;;;;;;4180121;28;20065;-70
2022/02/01 08:59:26;;;;;;;13.30;11.57;;;29.30;84.60;;;;;;4213820;28;20054;-69
2022/02/01 09:01:30;;;;;;;19.45;12.10;;;29.30;85.00;;;;;;4213199;28;20468;-70
2022/02/01 09:03:34;;;;;;;15.45;11.38;;;29.30;85.10;;;;;;4215768;28;20048;-70
2022/02/01 09:05:41;;;;;;;16.60;12.35;;;29.30;85.00;;;;;;4213318;28;20052;-69
2022/02/01 09:07:45;;;;;;;17.30;12.95;;;29.30;85.00;;;;;;4213653;28;20093;-69
2022/02/01 09:09:50;;;;;;;19.52;15.00;;;29.30;85.10;;;;;;4213652;28;20043;-69
2022/02/01 09:11:54;;;;;;;19.73;14.13;;;29.30;85.00;;;;;;4212981;28;20036;-69
2022/02/01 09:13:59;;;;;;;15.02;11.90;;;29.30;85.20;;;;;;4216322;28;20038;-70
2022/02/01 09:16:06;;;;;;;18.13;12.32;;;29.20;85.00;;;;;;4213804;28;20040;-69
2022/02/01 09:18:10;;;;;;;18.88;12.95;;;29.20;85.10;;;;;;4214016;28;20405;-69
2022/02/01 09:20:14;;;;;;;15.52;12.60;;;29.20;85.30;;;;;;4211388;28;20063;-69
2022/02/01 09:22:18;;;;;;;16.70;11.98;;;29.20;85.50;;;;;;4213751;28;20131;-69
2022/02/01 09:24:24;;;;;;;16.42;12.40;;;29.30;85.70;;;;;;4216204;28;20123;-69
2022/02/01 09:26:28;;;;;;;16.05;12.50;;;29.30;85.80;;;;;;4213856;28;20055;-69
2022/02/01 09:28:51;;;;;;;15.57;12.40;;;29.30;85.60;;;;;;4213825;28;20072;-69
2022/02/01 09:30:56;;;;;;;17.73;12.13;;;29.30;85.30;;;;;;4211355;28;20034;-69
2022/02/01 09:33:01;;;;;;;16.48;12.68;;;29.20;85.20;;;;;;4211834;28;20469;-69
2022/02/01 09:35:05;;;;;;;17.85;12.95;;;29.20;85.20;;;;;;4212980;28;20036;-69
2022/02/01 09:37:10;;;;;;;15.85;11.85;;;29.20;84.90;;;;;;4215570;28;20052;-70
2022/02/01 09:39:14;;;;;;;13.43;11.23;;;29.10;84.90;;;;;;4219178;28;20036;-70
2022/02/01 09:41:19;;;;;;;15.95;12.35;;;29.10;85.10;;;;;;4221324;28;20048;-70
2022/02/01 09:43:23;;;;;;;17.98;14.23;;;29.10;85.00;;;;;;4221638;28;20875;-70
2022/02/01 09:45:29;;;;;;;17.30;13.60;;;29.10;85.30;;;;;;4222322;28;20091;-70
2022/02/01 09:47:46;;;;;;;17.38;13.13;;;29.10;85.30;;;;;;4219763;28;20174;-69
2022/02/01 09:49:50;;;;;;;20.38;13.27;;;29.10;85.30;;;;;;4221167;28;20060;-69
2022/02/01 09:51:57;;;;;;;21.48;13.80;;;29.10;85.50;;;;;;4206296;28;20097;-70
2022/02/01 09:54:03;;;;;;;20.85;13.07;;;29.10;85.20;;;;;;4221333;28;20036;-69
2022/02/01 09:56:09;;;;;;;26.00;13.43;;;29.10;85.00;;;;;;4219317;28;20031;-69
2022/02/01 09:58:14;;;;;;;18.52;13.40;;;29.00;85.20;;;;;;4207035;28;20048;-70
2022/02/01 10:00:21;;;;;;;20.38;13.25;;;29.10;85.70;;;;;;4168505;28;20088;-70
2022/02/01 10:02:46;;;;;;;17.13;12.80;;;29.00;85.70;;;;;;4167896;28;20159;-69
2022/02/01 10:05:04;;;;;;;15.70;12.77;;;29.10;86.10;;;;;;4162125;28;20208;-70
2022/02/01 10:07:10;;;;;;;15.05;12.52;;;29.00;86.00;;;;;;4167242;28;20071;-69
2022/02/01 10:09:15;;;;;;;15.23;12.48;;;29.00;85.90;;;;;;4136667;28;20046;-70
2022/02/01 10:11:19;;;;;;;18.45;12.45;;;29.00;85.70;;;;;;4166264;28;20079;-70
2022/02/01 10:13:23;;;;;;;16.05;12.20;;;29.00;85.80;;;;;;4168574;28;20051;-69
2022/02/01 10:15:29;;;;;;;15.70;12.32;;;29.00;85.80;;;;;;4151974;28;20080;-70
2022/02/01 10:17:46;;;;;;;16.33;13.07;;;29.00;85.80;;;;;;4167560;28;20044;-70
2022/02/01 10:19:51;;;;;;;16.52;13.18;;;29.00;86.00;;;;;;4170220;28;20095;-69
2022/02/01 10:22:00;;;;;;;15.50;13.20;;;29.00;86.20;;;;;;4176978;28;20578;-70
2022/02/01 10:24:05;;;;;;;20.02;13.45;;;29.00;86.30;;;;;;4144062;28;20061;-67
2022/02/01 10:26:25;;;;;;;15.98;13.75;;;29.00;87.00;;;;;;4159935;28;20053;-71
2022/02/01 10:31:17;;;;;;;20.75;13.23;;;28.90;86.90;;;;;;4172291;28;20121;-70
2022/02/01 10:35:58;;;;;;;;;;;28.90;86.70;;;;;;4204645;28;20058;-70
2022/02/01 10:38:10;;;;;;;20.45;14.02;;;28.80;86.60;;;;;;4204185;28;19928;-69
2022/02/01 10:40:14;;;;;;;17.77;13.80;;;28.80;86.60;;;;;;4195359;28;20131;-69
2022/02/01 10:42:19;;;;;;;24.27;14.50;;;28.80;86.70;;;;;;4227840;28;20044;-70
2022/02/01 10:44:25;;;;;;;18.55;14.18;;;28.80;86.80;;;;;;4211381;28;20089;-70
2022/02/01 10:46:29;;;;;;;19.42;14.88;;;28.80;86.90;;;;;;4211669;28;20044;-70
2022/02/01 10:48:33;;;;;;;20.25;13.75;;;28.70;86.80;;;;;;4212498;28;20048;-70
2022/02/01 10:50:37;;;;;;;20.52;14.25;;;28.70;86.90;;;;;;4211548;28;20487;-69
2022/02/01 10:52:44;;;;;;;28.88;14.45;;;28.70;87.00;;;;;;4193937;28;20049;-70
2022/02/01 10:54:48;;;;;;;20.25;14.25;;;28.70;87.20;;;;;;4211989;28;20048;-70
2022/02/01 10:56:52;;;;;;;24.90;14.55;;;28.70;87.40;;;;;;4209369;28;20040;-70
2022/02/01 10:59:01;;;;;;;25.35;16.10;;;28.60;87.90;;;;;;4212663;28;20047;-71
2022/02/01 11:01:06;;;;;;;25.45;15.55;;;28.60;88.20;;;;;;4211543;28;20067;-70
2022/02/01 11:03:12;;;;;;;22.77;16.58;;;28.50;88.20;;;;;;4211852;28;20047;-70
2022/02/01 11:05:18;;;;;;;26.02;18.85;;;28.50;88.20;;;;;;4211576;28;20038;-69
2022/02/01 11:07:43;;;;;;;33.22;22.02;;;28.50;88.40;;;;;;4211429;28;20040;-69
2022/02/01 11:09:47;;;;;;;32.30;19.80;;;28.50;88.60;;;;;;4211204;28;20070;-70
2022/02/01 11:11:52;;;;;;;27.10;19.52;;;28.50;88.50;;;;;;4211637;28;20094;-69
2022/02/01 11:13:56;;;;;;;30.30;19.20;;;28.40;88.50;;;;;;4211610;28;20147;-69
2022/02/01 11:16:03;;;;;;;23.35;17.92;;;28.40;88.60;;;;;;4211792;28;20119;-70
2022/02/01 11:18:23;;;;;;;27.25;18.50;;;28.40;88.70;;;;;;4209221;28;20055;-70
2022/02/01 11:20:30;;;;;;;28.55;19.63;;;28.40;88.90;;;;;;4213121;28;20148;-70
2022/02/01 11:22:37;;;;;;;35.88;22.85;;;28.30;89.00;;;;;;4192972;28;20144;-71
2022/02/01 11:24:51;;;;;;;28.40;23.50;;;28.30;89.10;;;;;;4210983;28;20050;-73
2022/02/01 11:27:14;;;;;;;33.67;25.33;;;28.30;89.10;;;;;;4211391;28;20128;-70
2022/02/01 11:29:29;;;;;;;39.33;28.73;;;28.30;89.30;;;;;;4192706;28;20049;-69
2022/02/01 11:31:33;;;;;;;36.05;28.02;;;28.30;89.40;;;;;;4209331;28;20032;-71
2022/02/01 11:33:41;;;;;;;38.45;25.90;;;28.30;89.60;;;;;;4193253;28;20576;-71
2022/02/01 11:35:45;;;;;;;44.33;29.88;;;28.30;89.60;;;;;;4204851;28;20059;-71
2022/02/01 11:37:54;;;;;;;43.28;29.45;;;28.30;89.60;;;;;;4208286;28;20471;-70
2022/02/01 11:39:59;;;;;;;41.17;30.92;;;28.30;90.10;;;;;;4189550;28;20061;-70
2022/02/01 11:42:14;;;;;;;43.80;30.27;;;28.20;89.70;;;;;;4218091;28;20052;-70
2022/02/01 11:44:33;;;;;;;35.22;25.48;;;28.20;90.00;;;;;;4215141;28;20047;-69
2022/02/01 11:46:38;;;;;;;35.53;22.95;;;28.20;90.00;;;;;;4206058;28;20515;-69
2022/02/01 11:48:50;;;;;;;32.88;20.75;;;28.20;90.00;;;;;;4219748;28;20502;-69
2022/02/01 11:51:00;;;;;;;28.83;21.25;;;28.20;90.10;;;;;;4205066;28;20044;-69
2022/02/01 11:53:04;;;;;;;34.22;21.17;;;28.20;90.20;;;;;;4219743;28;20036;-69
2022/02/01 11:55:09;;;;;;;37.15;21.30;;;28.20;90.20;;;;;;4219583;28;20097;-69
2022/02/01 11:57:32;;;;;;;31.27;20.70;;;28.10;90.20;;;;;;4216683;28;20036;-70
2022/02/01 11:59:36;;;;;;;28.90;19.42;;;28.10;90.30;;;;;;4215155;28;20052;-70
2022/02/01 12:01:40;;;;;;;28.00;18.58;;;28.20;90.40;;;;;;4195199;28;20055;-70
2022/02/01 12:03:45;;;;;;;24.90;18.60;;;28.10;90.40;;;;;;4190096;28;20083;-71
2022/02/01 12:05:58;;;;;;;21.40;17.35;;;28.10;90.50;;;;;;4189676;28;20099;-70
2022/02/01 12:08:13;;;;;;;28.97;18.83;;;28.10;90.50;;;;;;4190073;28;20043;-70
2022/02/01 12:10:19;;;;;;;26.08;19.80;;;28.10;90.50;;;;;;4187846;28;20041;-69
2022/02/01 12:12:28;;;;;;;28.85;19.58;;;28.00;90.50;;;;;;4192373;28;20491;-69
2022/02/01 12:14:33;;;;;;;30.00;20.85;;;28.00;90.60;;;;;;4172026;28;20152;-70